Time;durP1;ratioP1;P1;durP2;ratioP2;P2;SDS_P1;SDS_P2;PMS_P1;PMS_P2;Temp;Humidity;BMP_temperature;BMP_pressure;BME280_temperature;BME280_humidity;BME280_pressure;Samples;Min_cycle;Max_cycle;Signal;HPM_P1;HPM_P2
2022/09/14 00:00:07;;;;;;;1.33;1.23;;;;;;;19.45;65.14;96159.47;10551238;28;20047;-48
2022/09/14 00:05:49;;;;;;;1.60;1.50;;;;;;;19.46;65.09;96161.03;10544831;28;20048;-50
2022/09/14 00:11:14;;;;;;;1.50;1.40;;;;;;;19.45;65.08;96154.88;10533591;28;20082;-48
2022/09/14 00:16:38;;;;;;;1.67;1.58;;;;;;;19.45;65.14;96133.25;10540265;28;20046;-48
2022/09/14 00:21:58;;;;;;;1.77;1.60;;;;;;;19.45;65.07;96135.16;10548084;28;20506;-51
2022/09/14 00:27:17;;;;;;;1.55;1.45;;;;;;;19.45;65.04;96133.25;10545550;28;20044;-51
2022/09/14 00:32:37;;;;;;;1.88;1.65;;;;;;;19.45;64.99;96129.78;10545674;28;20097;-49
2022/09/14 00:37:56;;;;;;;1.65;1.52;;;;;;;19.44;64.90;96139.00;10548266;28;20434;-49
2022/09/14 00:43:15;;;;;;;1.60;1.50;;;;;;;19.44;65.00;96128.97;10592195;28;20040;-50
2022/09/14 00:48:34;;;;;;;1.58;1.48;;;;;;;19.44;64.90;96111.97;10555442;28;20097;-51
2022/09/14 00:53:54;;;;;;;1.85;1.70;;;;;;;19.44;64.98;96110.06;10582318;28;20051;-50
2022/09/14 00:59:19;;;;;;;1.60;1.50;;;;;;;19.43;64.89;96116.59;10563964;28;20056;-51
2022/09/14 01:04:39;;;;;;;1.40;1.30;;;;;;;19.44;64.92;96122.78;10572557;28;20056;-51
2022/09/14 01:10:20;;;;;;;1.50;1.40;;;;;;;19.44;64.78;96133.59;10550637;28;20051;-48
2022/09/14 01:15:56;;;;;;;1.50;1.40;;;;;;;19.44;64.84;96125.47;10567797;28;20098;-50
2022/09/14 01:21:21;;;;;;;1.50;1.40;;;;;;;19.42;64.81;96123.13;10587216;28;20092;-48
2022/09/14 01:26:57;;;;;;;1.55;1.45;;;;;;;19.43;64.86;96119.31;10534333;28;20102;-48
2022/09/14 01:32:30;;;;;;;1.65;1.40;;;;;;;19.43;64.83;96103.09;10559277;28;20465;-48
2022/09/14 01:37:55;;;;;;;1.73;1.63;;;;;;;19.43;64.76;96108.50;10566573;28;20047;-50
2022/09/14 01:43:25;;;;;;;1.50;1.40;;;;;;;19.43;64.75;96103.09;10566742;28;20056;-49
2022/09/14 01:48:49;;;;;;;1.70;1.60;;;;;;;19.42;64.70;96098.81;10542539;28;20048;-48
2022/09/14 01:54:17;;;;;;;1.63;1.45;;;;;;;19.43;64.69;96086.88;10576861;28;20058;-50
2022/09/14 01:59:43;;;;;;;1.50;1.40;;;;;;;19.42;64.79;96085.28;10584059;28;20043;-48
2022/09/14 02:05:09;;;;;;;1.70;1.50;;;;;;;19.42;64.72;96085.28;10564347;28;20083;-49
2022/09/14 02:10:28;;;;;;;1.67;1.58;;;;;;;19.42;64.78;96074.50;10560157;28;20059;-50
2022/09/14 02:15:48;;;;;;;1.60;1.50;;;;;;;19.42;64.71;96069.09;10556544;28;20059;-52
2022/09/14 02:21:13;;;;;;;1.50;1.40;;;;;;;19.42;64.73;96068.31;10526949;28;20445;-50
2022/09/14 02:26:34;;;;;;;1.65;1.55;;;;;;;19.43;64.74;96065.28;10567170;28;20110;-51
2022/09/14 02:32:22;;;;;;;1.60;1.50;;;;;;;19.41;64.72;96051.31;10562790;28;20526;-50
2022/09/14 02:38:00;;;;;;;1.30;1.20;;;;;;;19.42;64.70;96036.69;10563391;28;20043;-49
2022/09/14 02:43:36;;;;;;;1.60;1.50;;;;;;;19.43;64.68;96062.56;10560234;28;20080;-48
2022/09/14 02:49:03;;;;;;;1.35;1.25;;;;;;;19.41;64.61;96067.53;10567415;28;20044;-49
2022/09/14 02:54:44;;;;;;;1.58;1.48;;;;;;;19.42;64.66;96060.22;10571192;28;20063;-52
2022/09/14 03:00:04;;;;;;;1.40;1.30;;;;;;;19.41;64.61;96045.91;10565863;28;20047;-49
2022/09/14 03:05:24;;;;;;;1.38;1.27;;;;;;;19.41;64.58;96056.72;10580409;28;20402;-52
2022/09/14 03:10:43;;;;;;;1.50;1.40;;;;;;;19.42;64.58;96057.50;10570030;28;20055;-51
2022/09/14 03:16:14;;;;;;;1.63;1.52;;;;;;;19.41;64.55;96066.75;10580935;28;20482;-49
2022/09/14 03:21:33;;;;;;;1.60;1.50;;;;;;;19.42;64.58;96063.69;10569002;28;20597;-50
2022/09/14 03:26:53;;;;;;;2.35;1.80;;;;;;;19.42;64.59;96071.00;10560258;28;20108;-51
2022/09/14 03:32:12;;;;;;;1.30;1.20;;;;;;;19.41;64.60;96064.06;10527585;28;20196;-51
2022/09/14 03:37:36;;;;;;;1.60;1.33;;;;;;;19.42;64.59;96057.50;10560358;28;20384;-48
2022/09/14 03:42:55;;;;;;;1.38;1.27;;;;;;;19.41;64.58;96062.13;10500612;28;20039;-50
2022/09/14 03:48:15;;;;;;;1.55;1.45;;;;;;;19.41;64.52;96045.16;10499712;28;20049;-50
2022/09/14 03:53:34;;;;;;;1.50;1.40;;;;;;;19.41;64.53;96045.16;10496322;28;20102;-49
2022/09/14 03:58:53;;;;;;;1.40;1.30;;;;;;;19.41;64.48;96043.22;10496441;28;20057;-48
2022/09/14 04:04:14;;;;;;;1.40;1.30;;;;;;;19.41;64.50;96028.94;10496324;28;20106;-51
2022/09/14 04:15:11;;;;;;;1.77;1.60;;;;;;;19.40;64.45;96016.53;10376081;23;20386;-60
2022/09/14 04:20:30;;;;;;;1.70;1.60;;;;;;;19.41;64.61;96023.53;10298845;28;20494;-60
2022/09/14 04:25:49;;;;;;;1.80;1.70;;;;;;;19.40;64.77;96011.94;10290395;28;20051;-60
2022/09/14 04:31:10;;;;;;;2.72;1.60;;;;;;;19.41;64.85;96004.63;10288405;28;20051;-62
2022/09/14 04:36:30;;;;;;;2.95;1.50;;;;;;;19.41;64.83;96000.00;10327675;28;20070;-62
2022/09/14 04:41:50;;;;;;;2.47;1.70;;;;;;;19.41;64.89;96000.00;10303280;28;20105;-62
2022/09/14 04:47:09;;;;;;;2.03;1.83;;;;;;;19.40;64.90;96001.13;10290995;28;20078;-62
2022/09/14 04:52:29;;;;;;;2.95;1.60;;;;;;;19.42;64.97;95998.09;10303787;28;20066;-62
2022/09/14 04:57:48;;;;;;;2.28;1.67;;;;;;;19.41;65.05;95991.91;10311121;28;20046;-61
2022/09/14 05:03:07;;;;;;;1.98;1.77;;;;;;;19.41;64.92;95988.41;10300198;28;20055;-61
2022/09/14 05:08:26;;;;;;;5.10;1.70;;;;;;;19.40;64.85;95993.03;10323727;28;20038;-61
2022/09/14 05:13:47;;;;;;;3.40;2.10;;;;;;;19.40;64.98;95984.13;10304868;28;20135;-62
2022/09/14 05:19:09;;;;;;;5.53;2.47;;;;;;;19.39;64.89;95972.56;10296712;28;20054;-61
2022/09/14 05:24:28;;;;;;;5.00;2.67;;;;;;;19.39;64.84;95969.06;10298454;28;20088;-61
2022/09/14 05:29:48;;;;;;;5.38;2.97;;;;;;;19.39;64.90;95967.16;10297513;28;20117;-62
2022/09/14 05:35:07;;;;;;;5.68;2.90;;;;;;;19.40;65.02;95970.63;10312518;28;20102;-59
2022/09/14 05:40:27;;;;;;;6.95;2.97;;;;;;;19.41;64.91;95969.53;10299627;28;20058;-62
2022/09/14 05:45:46;;;;;;;6.53;2.85;;;;;;;19.40;64.94;95979.50;10309466;28;20067;-61
2022/09/14 05:51:09;;;;;;;6.07;3.22;;;;;;;19.39;64.94;95980.66;10294133;28;20505;-61
2022/09/14 05:56:30;;;;;;;5.95;3.53;;;;;;;19.39;64.97;96002.25;10296179;28;20057;-62
2022/09/14 06:01:49;;;;;;;7.72;3.53;;;;;;;19.38;64.88;96008.78;10295617;28;20054;-61
2022/09/14 06:07:09;;;;;;;7.75;3.58;;;;;;;19.40;64.92;96011.16;10293500;28;20062;-62
2022/09/14 06:12:28;;;;;;;6.38;3.03;;;;;;;19.39;64.93;96021.16;10295024;28;20050;-62
2022/09/14 06:17:48;;;;;;;5.53;3.13;;;;;;;19.40;64.93;96021.94;10313308;28;20050;-61
2022/09/14 06:23:07;;;;;;;7.03;3.45;;;;;;;19.39;64.90;96018.47;10297338;28;20129;-61
2022/09/14 06:28:28;;;;;;;6.32;3.40;;;;;;;19.39;64.96;96015.78;10297688;28;20054;-61
2022/09/14 06:33:50;;;;;;;7.32;3.45;;;;;;;19.39;64.90;96009.59;10310355;28;20038;-60
2022/09/14 06:39:10;;;;;;;6.15;3.33;;;;;;;19.38;64.93;95997.97;10298908;28;20047;-62
2022/09/14 06:44:30;;;;;;;6.57;3.13;;;;;;;19.39;64.86;95982.59;10294542;28;20051;-61
2022/09/14 06:49:49;;;;;;;5.22;3.13;;;;;;;19.39;64.85;95994.16;10294190;28;20051;-61
2022/09/14 06:55:09;;;;;;;5.82;3.17;;;;;;;19.39;64.92;95977.19;10293763;28;20081;-62
2022/09/14 07:00:29;;;;;;;5.88;2.90;;;;;;;19.38;64.81;95973.66;10319530;28;20490;-62
2022/09/14 07:05:48;;;;;;;6.70;3.33;;;;;;;19.39;64.85;95974.47;10309690;28;20045;-61
2022/09/14 07:11:09;;;;;;;5.88;3.13;;;;;;;19.39;64.78;95961.75;10297727;28;20062;-62
2022/09/14 07:16:30;;;;;;;6.53;3.25;;;;;;;19.38;64.79;95968.28;10288219;28;20058;-62
2022/09/14 07:21:49;;;;;;;5.35;2.90;;;;;;;19.39;64.75;95952.88;10311536;28;20058;-62
2022/09/14 07:27:08;;;;;;;6.22;3.28;;;;;;;19.39;64.80;95956.34;10322386;28;20051;-62
2022/09/14 07:32:28;;;;;;;5.03;3.20;;;;;;;19.38;64.74;95960.16;10308336;28;20101;-61
2022/09/14 07:37:47;;;;;;;6.07;3.08;;;;;;;19.39;64.79;95961.75;10305577;28;20042;-61
2022/09/14 07:43:06;;;;;;;5.75;2.90;;;;;;;19.38;64.81;95964.78;10307217;28;20089;-61
2022/09/14 07:48:26;;;;;;;6.57;2.88;;;;;;;19.39;64.83;95964.44;10289365;28;20082;-62
2022/09/14 07:53:45;;;;;;;6.20;2.97;;;;;;;19.38;64.75;95964.78;10302992;28;20557;-61
2022/09/14 07:59:05;;;;;;;5.20;2.88;;;;;;;19.38;64.81;95970.97;10294805;28;20065;-61
2022/09/14 08:04:24;;;;;;;4.63;3.13;;;;;;;19.39;64.77;95967.16;10302529;28;20050;-61
2022/09/14 08:09:45;;;;;;;5.47;3.10;;;;;;;19.38;64.78;95960.16;10292393;28;20055;-62
2022/09/14 08:15:05;;;;;;;5.50;2.70;;;;;;;19.38;64.88;95954.75;10296882;28;20077;-61
2022/09/14 08:20:25;;;;;;;4.63;2.95;;;;;;;19.39;64.81;95955.56;10294477;28;20402;-61
2022/09/14 08:25:44;;;;;;;5.70;2.85;;;;;;;19.37;64.74;95945.09;10296339;28;20106;-61
2022/09/14 08:31:14;;;;;;;5.63;2.78;;;;;;;19.38;64.74;95946.66;10299393;28;20062;-61
2022/09/14 08:36:39;;;;;;;4.10;2.55;;;;;;;19.38;64.78;95949.34;10312661;28;20043;-60
2022/09/14 08:41:59;;;;;;;5.63;2.60;;;;;;;19.38;64.74;95943.97;10311536;28;20043;-61
2022/09/14 08:47:26;;;;;;;5.25;2.95;;;;;;;19.38;64.85;95935.09;10301354;28;20141;-62
2022/09/14 08:52:52;;;;;;;4.28;2.63;;;;;;;19.39;64.70;95942.84;10301135;28;20088;-62
2022/09/14 08:58:40;;;;;;;3.35;2.40;;;;;;;19.38;64.76;95935.09;10316801;28;20051;-62
2022/09/14 09:04:36;;;;;;;5.40;2.33;;;;;;;19.39;64.91;95933.97;10297388;28;20062;-60
2022/09/14 09:09:57;;;;;;;4.22;2.33;;;;;;;19.40;64.92;95930.91;10297509;28;20050;-62
2022/09/14 09:15:30;;;;;;;3.25;2.47;;;;;;;19.39;64.96;95918.53;10290946;28;20065;-62
2022/09/14 09:21:11;;;;;;;16.55;4.03;;;;;;;19.39;64.72;95926.63;10290313;28;20446;-61
2022/09/14 09:26:31;;;;;;;5.13;3.20;;;;;;;19.39;64.93;95923.94;10300691;28;20442;-61
2022/09/14 09:31:53;;;;;;;7.65;3.55;;;;;;;19.40;65.15;95925.50;10291148;28;20051;-61
2022/09/14 09:37:38;;;;;;;7.13;3.70;;;;;;;19.42;65.32;95930.56;10294639;28;20105;-62
2022/09/14 09:43:07;;;;;;;6.55;3.03;;;;;;;19.41;65.57;95926.31;10295771;28;20047;-60
2022/09/14 09:48:37;;;;;;;9.68;3.60;;;;;;;19.41;65.70;95932.47;10309096;28;20061;-60
2022/09/14 09:54:12;;;;;;;4.07;2.60;;;;;;;19.41;65.98;95923.59;10295860;28;20513;-58
2022/09/14 09:59:40;;;;;;;3.50;2.33;;;;;;;19.42;66.22;95922.47;10295058;28;20047;-60
2022/09/14 10:05:02;;;;;;;4.03;2.40;;;;;;;19.43;66.54;95930.22;10314462;28;20046;-59
2022/09/14 10:10:34;;;;;;;41.28;16.08;;;;;;;19.44;66.86;95920.19;10298180;28;20054;-62
2022/09/14 10:16:05;;;;;;;38.92;14.18;;;;;;;19.45;67.18;95916.38;10254299;28;20114;-62
2022/09/14 10:21:25;;;;;;;26.05;11.38;;;;;;;19.44;67.34;95917.50;10260881;28;20610;-62
2022/09/14 10:26:44;;;;;;;26.02;9.50;;;;;;;19.44;67.36;95912.09;10254176;28;20055;-62
2022/09/14 10:32:16;;;;;;;19.75;8.30;;;;;;;19.42;66.99;95912.44;10266452;28;20057;-62
2022/09/14 10:38:06;;;;;;;20.13;8.43;;;;;;;19.43;67.50;95915.94;10259314;28;20104;-61
2022/09/14 10:43:41;;;;;;;14.27;6.80;;;;;;;19.42;67.22;95917.06;10270056;28;20406;-62
2022/09/14 10:49:21;;;;;;;17.27;7.40;;;;;;;19.42;67.22;95912.44;10255651;28;20053;-62
2022/09/14 10:55:11;;;;;;;12.20;5.57;;;;;;;19.42;66.99;95917.06;10266838;28;20050;-62
2022/09/14 11:00:37;;;;;;;14.43;5.63;;;;;;;19.40;66.88;95922.78;10263125;28;20043;-62
2022/09/14 11:06:15;;;;;;;12.95;5.85;;;;;;;19.41;66.79;95924.38;10250069;28;20149;-62
2022/09/14 11:11:37;;;;;;;10.87;4.93;;;;;;;19.40;66.92;95900.41;10268702;28;20065;-61
2022/09/14 11:17:12;;;;;;;8.48;4.47;;;;;;;19.40;66.67;95893.09;10321878;28;20405;-62
2022/09/14 11:23:09;;;;;;;9.75;4.07;;;;;;;19.39;66.58;95875.31;10294110;28;20087;-62
2022/09/14 11:28:57;;;;;;;8.70;3.92;;;;;;;19.40;66.51;95873.41;10297126;28;20054;-62
2022/09/14 11:34:36;;;;;;;7.95;3.75;;;;;;;19.40;66.35;95876.09;10285119;28;20059;-62
2022/09/14 11:40:19;;;;;;;7.38;3.50;;;;;;;19.39;66.53;95867.22;10291960;28;20047;-61
2022/09/14 11:45:41;;;;;;;7.03;3.35;;;;;;;19.40;66.60;95865.28;10297377;28;20058;-61
2022/09/14 11:51:27;;;;;;;6.70;3.13;;;;;;;19.41;66.60;95872.28;10295655;28;20489;-62
2022/09/14 11:56:54;;;;;;;6.93;3.13;;;;;;;19.40;66.77;95863.38;10286961;28;20051;-62
2022/09/14 12:02:29;;;;;;;6.50;2.85;;;;;;;19.40;67.09;95866.06;10297392;28;20493;-62
2022/09/14 12:07:49;;;;;;;3.03;2.17;;;;;;;19.40;67.36;95859.91;10310579;28;20087;-62
2022/09/14 12:13:08;;;;;;;4.60;2.13;;;;;;;19.39;67.67;95856.41;10314809;28;20066;-62
2022/09/14 12:18:28;;;;;;;3.08;2.22;;;;;;;19.38;67.78;95833.22;10312155;28;20100;-62
2022/09/14 12:23:51;;;;;;;3.17;1.85;;;;;;;19.39;67.87;95836.72;10297945;28;20054;-62
2022/09/14 12:29:43;;;;;;;4.03;2.10;;;;;;;19.36;68.10;95843.59;10296335;28;20055;-62
2022/09/14 12:35:42;;;;;;;4.45;2.03;;;;;;;19.37;68.21;95828.97;10277495;28;20067;-61
2022/09/14 12:41:08;;;;;;;3.35;2.13;;;;;;;19.36;68.29;95822.75;10283383;28;20055;-62
2022/09/14 12:46:34;;;;;;;4.72;2.35;;;;;;;19.36;68.21;95822.00;10295136;28;20494;-62
2022/09/14 12:51:54;;;;;;;7.47;2.78;;;;;;;19.37;68.08;95815.47;10293382;28;20098;-62
2022/09/14 12:57:41;;;;;;;5.13;2.25;;;;;;;19.38;67.79;95818.94;10290555;28;20057;-62
2022/09/14 13:03:17;;;;;;;10.37;3.60;;;;;;;19.36;67.72;95811.97;10285509;28;20061;-61
2022/09/14 13:08:36;;;;;;;8.05;3.00;;;;;;;19.37;67.76;95804.66;10290819;28;20054;-60
2022/09/14 13:13:56;;;;;;;6.78;3.08;;;;;;;19.37;67.51;95810.06;10302080;28;20495;-62
2022/09/14 13:19:20;;;;;;;10.48;3.55;;;;;;;19.39;67.55;95815.91;10308125;28;20050;-62
2022/09/14 13:24:44;;;;;;;9.55;3.45;;;;;;;19.40;67.50;95809.34;10314065;28;20034;-62
2022/09/14 13:30:09;;;;;;;5.88;2.78;;;;;;;19.39;67.39;95805.09;10308510;28;20055;-61
2022/09/14 13:35:35;;;;;;;7.97;2.75;;;;;;;19.39;67.40;95807.81;10321872;28;20441;-61
2022/09/14 13:41:05;;;;;;;5.65;2.78;;;;;;;19.40;67.52;95800.47;10299092;28;20086;-62
2022/09/14 13:46:25;;;;;;;7.43;2.97;;;;;;;19.39;67.45;95799.69;10329625;28;20408;-62
2022/09/14 13:51:46;;;;;;;5.03;2.92;;;;;;;19.39;67.46;95807.81;10308404;28;20413;-62
2022/09/14 13:57:17;;;;;;;7.88;3.47;;;;;;;19.39;67.46;95794.31;10315373;28;20501;-60
2022/09/14 14:02:43;;;;;;;7.68;2.90;;;;;;;19.39;67.46;95783.50;10294621;28;20117;-60
2022/09/14 14:08:03;;;;;;;6.30;2.65;;;;;;;19.41;67.74;95791.25;10295900;28;20516;-60
2022/09/14 14:13:34;;;;;;;4.20;2.38;;;;;;;19.41;67.79;95780.44;10315756;28;20502;-62
2022/09/14 14:18:55;;;;;;;5.85;2.67;;;;;;;19.39;67.70;95783.50;10324375;28;20047;-62
2022/09/14 14:24:28;;;;;;;4.85;2.35;;;;;;;19.40;67.82;95787.75;10307285;28;20061;-62
2022/09/14 14:29:51;;;;;;;5.28;2.25;;;;;;;19.41;67.79;95780.44;10258463;28;20057;-62
2022/09/14 14:35:18;;;;;;;4.47;2.10;;;;;;;19.40;67.87;95779.66;10297901;28;20051;-61
2022/09/14 14:40:39;;;;;;;5.13;2.37;;;;;;;19.41;67.88;95791.25;10322296;28;20047;-61
2022/09/14 14:46:00;;;;;;;3.22;2.10;;;;;;;19.41;67.80;95797.44;10311489;28;20510;-61
2022/09/14 14:51:20;;;;;;;4.05;2.05;;;;;;;19.40;68.04;95787.75;10312277;28;20066;-62
2022/09/14 14:56:41;;;;;;;5.05;2.30;;;;;;;19.40;68.12;95787.75;10310072;28;20051;-62
2022/09/14 15:02:01;;;;;;;5.85;2.22;;;;;;;19.43;68.53;95789.00;10293786;28;20181;-62
2022/09/14 15:07:20;;;;;;;5.68;2.33;;;;;;;19.42;68.51;95774.69;10296862;28;20051;-62
2022/09/14 15:12:39;;;;;;;8.73;2.35;;;;;;;19.44;68.67;95769.72;10287082;28;20059;-61
2022/09/14 15:17:59;;;;;;;7.90;2.80;;;;;;;19.45;69.06;95779.41;10293402;28;20070;-61
2022/09/14 15:23:19;;;;;;;5.65;2.20;;;;;;;19.45;68.95;95776.69;10295614;28;20051;-60
2022/09/14 15:28:38;;;;;;;5.03;2.25;;;;;;;19.48;69.27;95770.63;10295682;28;20051;-60
2022/09/14 15:33:58;;;;;;;8.25;2.17;;;;;;;19.49;69.32;95757.88;10302539;28;20145;-59
2022/09/14 15:39:23;;;;;;;5.13;2.10;;;;;;;19.49;69.40;95764.06;10291213;28;20054;-60
2022/09/14 15:44:43;;;;;;;10.90;2.55;;;;;;;19.50;69.54;95765.66;10296875;28;20116;-61
2022/09/14 15:50:04;;;;;;;8.45;2.67;;;;;;;19.52;69.41;95751.78;10305515;28;20494;-61
2022/09/14 15:55:24;;;;;;;8.45;2.45;;;;;;;19.52;69.49;95739.06;10304103;28;20062;-60
2022/09/14 16:00:44;;;;;;;12.35;2.65;;;;;;;19.52;69.57;95722.84;10305250;28;20046;-56
2022/09/14 16:06:04;;;;;;;8.55;2.33;;;;;;;19.53;69.68;95721.72;10331784;28;20117;-59
2022/09/14 16:11:23;;;;;;;6.82;2.30;;;;;;;19.52;69.51;95712.06;10320829;28;20070;-60
2022/09/14 16:16:43;;;;;;;11.88;2.60;;;;;;;19.52;69.60;95695.03;10291881;28;20065;-61
2022/09/14 16:22:02;;;;;;;6.45;2.50;;;;;;;19.53;69.60;95667.69;10304913;28;20471;-59
2022/09/14 16:27:22;;;;;;;6.22;2.50;;;;;;;19.54;69.59;95655.75;10307159;28;20062;-60
2022/09/14 16:32:43;;;;;;;8.18;2.30;;;;;;;19.52;69.40;95657.22;10294253;28;20410;-62
2022/09/14 16:38:03;;;;;;;8.68;2.40;;;;;;;19.52;69.61;95644.53;10304968;28;20166;-59
2022/09/14 16:43:22;;;;;;;7.43;2.47;;;;;;;19.53;69.68;95664.97;10291252;28;20066;-60
2022/09/14 16:48:44;;;;;;;7.78;2.42;;;;;;;19.54;69.68;95665.75;10288988;28;20058;-60
2022/09/14 16:54:04;;;;;;;34.75;15.70;;;;;;;19.52;69.65;95662.63;10299111;28;20113;-60
2022/09/14 16:59:24;;;;;;;21.00;7.82;;;;;;;19.54;69.96;95642.25;10298618;28;20051;-58
2022/09/14 17:04:43;;;;;;;29.27;8.88;;;;;;;19.55;70.02;95646.50;10298187;28;20113;-56
2022/09/14 17:10:03;;;;;;;17.98;7.47;;;;;;;19.56;69.91;95656.19;10308167;28;20554;-60
2022/09/14 17:15:23;;;;;;;22.85;8.15;;;;;;;19.57;69.96;95662.38;10311759;28;20067;-60
2022/09/14 17:20:57;;;;;;;15.70;7.35;;;;;;;19.56;70.27;95661.59;10302727;28;20485;-61
2022/09/14 17:26:19;;;;;;;9.32;5.00;;;;;;;19.56;70.17;95656.19;10294427;28;20058;-61
2022/09/14 17:31:40;;;;;;;6.85;4.63;;;;;;;19.51;70.58;95640.25;10327553;28;20050;-61
2022/09/14 17:37:00;;;;;;;6.15;5.28;;;;;;;19.41;71.05;95631.91;10325853;28;20494;-62
2022/09/14 17:42:19;;;;;;;5.68;4.53;;;;;;;19.32;71.14;95642.88;10309350;28;20049;-61
2022/09/14 17:47:39;;;;;;;6.28;5.18;;;;;;;19.24;71.25;95660.84;10302439;28;20047;-62
2022/09/14 17:52:58;;;;;;;5.03;4.53;;;;;;;19.19;71.55;95676.50;10311822;28;20039;-62
2022/09/14 17:58:18;;;;;;;5.45;4.55;;;;;;;19.15;71.63;95688.03;10314388;28;20105;-62
2022/09/14 18:03:39;;;;;;;5.25;4.53;;;;;;;19.16;71.65;95692.28;10314949;28;20051;-62
2022/09/14 18:09:04;;;;;;;4.88;3.80;;;;;;;19.21;71.64;95676.94;10307283;28;20094;-61
2022/09/14 18:14:24;;;;;;;4.50;4.10;;;;;;;19.25;71.50;95664.31;10297794;28;20532;-57
2022/09/14 18:19:44;;;;;;;5.38;3.40;;;;;;;19.29;71.10;95671.38;10308822;28;20458;-58
2022/09/14 18:25:05;;;;;;;4.63;3.13;;;;;;;19.32;70.76;95678.00;10316310;28;20050;-58
2022/09/14 18:30:25;;;;;;;3.20;2.90;;;;;;;19.34;70.61;95673.03;10294950;28;20061;-60
2022/09/14 18:35:44;;;;;;;16.90;3.13;;;;;;;19.35;70.32;95672.69;10313645;28;20391;-62
2022/09/14 18:41:05;;;;;;;4.60;2.92;;;;;;;19.37;70.44;95661.53;10318586;28;20403;-60
2022/09/14 18:46:26;;;;;;;3.70;3.05;;;;;;;19.39;70.35;95659.25;10307147;28;20047;-60
2022/09/14 18:51:45;;;;;;;3.33;2.88;;;;;;;19.39;70.35;95659.25;10307173;28;20146;-61
2022/09/14 18:57:05;;;;;;;3.20;2.88;;;;;;;19.39;70.10;95656.56;10294384;28;20057;-61
2022/09/14 19:02:24;;;;;;;3.10;2.80;;;;;;;19.40;70.05;95644.59;10304924;28;20061;-61
2022/09/14 19:07:43;;;;;;;3.42;3.00;;;;;;;19.40;70.14;95641.91;10305772;28;20398;-56
2022/09/14 19:13:03;;;;;;;3.08;2.78;;;;;;;19.42;70.13;95647.75;10295853;28;20054;-61
2022/09/14 19:18:23;;;;;;;3.35;2.63;;;;;;;19.42;70.14;95639.63;10312476;28;20047;-61
2022/09/14 19:23:42;;;;;;;3.15;2.85;;;;;;;19.44;69.99;95634.66;10301704;28;20069;-61
2022/09/14 19:29:03;;;;;;;3.25;2.60;;;;;;;19.43;69.97;95632.34;10287483;28;20061;-60
2022/09/14 19:34:24;;;;;;;4.45;2.80;;;;;;;19.43;69.92;95614.22;10292257;28;20059;-62
2022/09/14 19:39:43;;;;;;;5.15;3.15;;;;;;;19.43;69.76;95622.31;10292916;28;20422;-61
2022/09/14 19:45:03;;;;;;;4.38;2.47;;;;;;;19.44;69.89;95623.88;10292181;28;20058;-60
2022/09/14 19:50:22;;;;;;;4.15;2.55;;;;;;;19.45;69.92;95630.84;10292383;28;20059;-59
2022/09/14 19:55:42;;;;;;;5.78;2.58;;;;;;;19.44;69.86;95621.16;10305012;28;20054;-60
2022/09/14 20:01:03;;;;;;;2.95;2.42;;;;;;;19.45;69.85;95622.75;10318984;28;20050;-59
2022/09/14 20:06:30;;;;;;;3.22;2.50;;;;;;;19.46;69.87;95626.22;10291373;28;20058;-59
2022/09/14 20:11:51;;;;;;;3.47;2.63;;;;;;;19.45;70.05;95630.06;10297441;28;20059;-61
2022/09/14 20:17:10;;;;;;;2.67;2.30;;;;;;;19.45;69.86;95641.66;10291095;28;20050;-61
2022/09/14 20:22:30;;;;;;;2.85;2.55;;;;;;;19.45;69.91;95657.84;10300119;28;20445;-60
2022/09/14 20:27:50;;;;;;;2.53;2.33;;;;;;;19.46;69.97;95653.22;10292761;28;20059;-60
2022/09/14 20:33:10;;;;;;;3.88;2.22;;;;;;;19.47;69.95;95644.00;10318428;28;20113;-61
2022/09/14 20:38:30;;;;;;;4.85;2.53;;;;;;;19.47;69.87;95631.28;10322541;28;20042;-61
2022/09/14 20:43:50;;;;;;;2.85;2.40;;;;;;;19.48;69.87;95627.47;10298930;28;20073;-61
2022/09/14 20:49:12;;;;;;;3.13;2.10;;;;;;;19.49;69.88;95622.84;10299215;28;20129;-60
2022/09/14 20:54:31;;;;;;;4.50;2.30;;;;;;;19.48;69.90;95608.56;10298952;28;20055;-62
2022/09/14 20:59:51;;;;;;;3.65;2.17;;;;;;;19.49;70.03;95599.28;10311421;28;20047;-61
2022/09/14 21:05:11;;;;;;;2.67;2.30;;;;;;;19.49;70.00;95610.09;10311871;28;20113;-61
2022/09/14 21:10:30;;;;;;;3.30;2.25;;;;;;;19.50;69.99;95610.88;10298270;28;20055;-61
2022/09/14 21:15:50;;;;;;;3.13;2.25;;;;;;;19.48;69.89;95592.34;10302528;28;20061;-61
2022/09/14 21:21:18;;;;;;;2.25;2.05;;;;;;;19.49;69.76;95566.88;10326092;28;20054;-61
2022/09/14 21:26:38;;;;;;;2.33;2.05;;;;;;;19.48;69.72;95570.75;10315749;28;20058;-61
2022/09/14 21:31:57;;;;;;;2.42;2.20;;;;;;;19.48;69.67;95581.53;10307277;28;20058;-61
2022/09/14 21:37:18;;;;;;;2.92;2.50;;;;;;;19.47;69.54;95569.16;10324725;28;20054;-62
2022/09/14 21:42:37;;;;;;;2.28;2.05;;;;;;;19.49;69.56;95568.81;10299879;28;20050;-61
2022/09/14 21:47:57;;;;;;;2.33;2.13;;;;;;;19.49;69.43;95582.31;10315467;28;20101;-60
2022/09/14 21:53:17;;;;;;;3.78;2.33;;;;;;;19.48;69.46;95578.84;10299314;28;20058;-60
2022/09/14 21:58:37;;;;;;;2.75;2.45;;;;;;;19.48;69.29;95570.75;10321832;28;20421;-62
2022/09/14 22:03:56;;;;;;;2.38;2.17;;;;;;;19.47;69.22;95569.16;10331277;28;20043;-61
2022/09/14 22:09:17;;;;;;;2.33;2.13;;;;;;;19.48;69.29;95573.44;10307066;28;20050;-62
2022/09/14 22:14:38;;;;;;;2.30;2.10;;;;;;;19.49;69.29;95572.28;10303385;28;20055;-61
2022/09/14 22:19:59;;;;;;;2.45;2.00;;;;;;;19.48;69.25;95581.53;10295630;28;20054;-61
2022/09/14 22:25:20;;;;;;;2.15;1.90;;;;;;;19.47;69.22;95577.25;10321195;28;20059;-62
2022/09/14 22:30:48;;;;;;;3.17;2.05;;;;;;;19.47;69.20;95574.56;10297499;28;20046;-61
2022/09/14 22:36:08;;;;;;;;;;;;;;;19.47;69.21;95577.25;10336320;28;20038;-61
2022/09/14 22:41:28;;;;;;;2.58;2.20;;;;;;;19.47;69.19;95569.16;10304468;28;20297;-62
2022/09/14 22:46:47;;;;;;;2.50;2.20;;;;;;;19.47;69.08;95558.34;10328731;28;20507;-62
2022/09/14 22:52:07;;;;;;;2.53;2.15;;;;;;;19.47;69.07;95566.44;10300458;28;20134;-61
2022/09/14 22:57:26;;;;;;;2.13;1.92;;;;;;;19.47;69.10;95562.97;10302674;28;20065;-61
2022/09/14 23:02:46;;;;;;;2.17;1.98;;;;;;;19.47;68.98;95576.47;10303256;28;20524;-61
2022/09/14 23:08:06;;;;;;;2.13;1.92;;;;;;;19.47;68.98;95573.78;10292505;28;20050;-61
2022/09/14 23:13:26;;;;;;;2.65;2.05;;;;;;;19.46;68.94;95578.38;10304708;28;20069;-62
2022/09/14 23:18:55;;;;;;;2.10;1.90;;;;;;;19.47;68.88;95581.88;10285836;28;20047;-61
2022/09/14 23:24:15;;;;;;;1.90;1.80;;;;;;;19.47;68.94;95568.38;10293333;28;20109;-61
2022/09/14 23:29:34;;;;;;;1.80;1.70;;;;;;;19.46;68.75;95562.16;10292846;28;20105;-60
2022/09/14 23:34:53;;;;;;;1.92;1.80;;;;;;;19.47;68.87;95569.16;10292799;28;20050;-61
2022/09/14 23:40:13;;;;;;;2.17;2.00;;;;;;;19.46;68.87;95575.69;10311006;28;20055;-61
2022/09/14 23:45:33;;;;;;;2.17;1.90;;;;;;;19.47;68.79;95584.59;10295318;28;20054;-61
2022/09/14 23:50:57;;;;;;;2.10;1.75;;;;;;;19.47;68.77;95585.34;10295065;28;20059;-61
2022/09/14 23:56:17;;;;;;;1.90;1.80;;;;;;;19.47;68.82;95574.56;10307216;28;20070;-61
